Data for 06/23/2008

Time Sea-Level Adjusted Pressure Absolute Pressure Temperature Relative Humidity Dew Point   
(mb) (inHg) (mb) (inHg) (C) (F) (%) (C) (F)
00:05 1021 30.15 850 25.1 12.7 54.8 82 9.8 49.6
00:10 1021 30.15 850 25.1 12.6 54.7 84 9.9 49.8
00:15 1021 30.15 850 25.1 12.6 54.7 81 9.5 49.1
00:20 1021 30.15 850 25.1 12.8 55.1 81 9.6 49.2
00:25 1021 30.15 850 25.1 12.8 55.1 79 9.3 48.8
00:30 1021 30.15 850 25.1 13 55.3 78 9.2 48.6
00:35 1021 30.15 850 25.1 13 55.4 77 9 48.2
00:40 1021 30.15 850 25.1 13.1 55.5 76 9 48.1
00:45 1021 30.15 850 25.1 13.1 55.6 75 8.8 47.9
00:50 1021 30.15 850 25.1 13.1 55.6 76 9 48.2
00:55 1021 30.15 850 25.1 12.9 55.1 77 8.9 48
01:00 1021 30.15 850 25.1 12.8 55 77 8.8 47.9
01:05 1021 30.15 850 25.1 12.7 54.9 77 8.8 47.8
01:10 1021 30.15 850 25.1 12.6 54.7 77 8.8 47.8
01:15 1021 30.15 850 25.1 12.5 54.5 78 8.8 47.8
01:20 1021 30.15 850 25.1 12.5 54.4 78 8.7 47.6
01:25 1021 30.15 850 25.1 12.3 54.2 79 8.8 47.8
01:30 1020 30.12 850 25.1 12.1 53.8 80 8.8 47.8
01:35 1020 30.12 850 25.1 12 53.6 80 8.7 47.7
01:40 1020 30.12 850 25.1 11.9 53.4 80 8.6 47.5
01:45 1020 30.12 849 25.07 11.9 53.4 80 8.7 47.6
01:50 1020 30.12 849 25.07 11.9 53.4 80 8.7 47.6
01:55 1020 30.12 850 25.1 11.9 53.5 80 8.6 47.6
02:00 1020 30.12 849 25.07 12.1 53.8 80 8.8 47.8
02:05 1020 30.12 849 25.07 12 53.6 81 8.8 47.9
02:10 1020 30.12 850 25.1 12 53.5 81 8.8 47.8
02:15 1021 30.15 850 25.1 11.9 53.4 80 8.6 47.5
02:20 1021 30.15 850 25.1 11.9 53.4 81 8.7 47.7
02:25 1021 30.15 850 25.1 11.9 53.4 80 8.6 47.6
02:30 1021 30.15 850 25.1 12.1 53.9 79 8.7 47.7
02:35 1021 30.15 850 25.1 12.2 53.9 81 9 48.2
02:40 1021 30.15 850 25.1 11.9 53.5 83 9.2 48.6
02:45 1021 30.15 850 25.1 11.8 53.2 84 9.1 48.4
02:50 1021 30.15 850 25.1 11.7 53.1 84 9.2 48.6
02:55 1021 30.15 850 25.1 11.8 53.3 79 8.4 47
03:00 1021 30.15 850 25.1 12.3 54.2 78 8.6 47.4
03:05 1021 30.15 850 25.1 12.3 54.1 81 9.1 48.4
03:10 1021 30.15 850 25.1 12.1 53.7 82 9.1 48.3
03:15 1021 30.15 850 25.1 11.8 53.3 82 8.9 48
03:20 1021 30.15 850 25.1 11.7 53.1 83 9 48.2
03:25 1021 30.15 850 25.1 11.7 53 83 8.9 48
03:30 1021 30.15 850 25.1 11.3 52.4 84 8.7 47.7
03:35 1021 30.15 850 25.1 11.2 52.1 84 8.5 47.3
03:40 1021 30.15 850 25.1 10.8 51.5 84 8.3 46.9
03:45 1021 30.15 850 25.1 10.6 51.1 85 8.2 46.8
03:50 1021 30.15 850 25.1 10.6 51 85 8.1 46.6
03:55 1021 30.15 850 25.1 10.6 51.1 83 7.9 46.2
04:00 1021 30.15 850 25.1 10.9 51.6 83 8.1 46.6
04:05 1021 30.15 850 25.1 10.8 51.4 83 8 46.4
04:10 1021 30.15 850 25.1 10.8 51.5 83 8 46.4
04:15 1021 30.15 850 25.1 10.7 51.3 83 7.9 46.2
04:20 1021 30.15 850 25.1 10.5 50.8 84 8 46.3
04:25 1021 30.15 850 25.1 9.8 49.6 87 7.7 45.8
04:30 1021 30.15 850 25.1 9.4 49 86 7.1 44.9
04:35 1021 30.15 850 25.1 9.3 48.7 85 6.8 44.2
04:40 1021 30.15 850 25.1 9.2 48.5 84 6.7 44.1
04:45 1021 30.15 850 25.1 9.2 48.5 85 6.7 44.1
04:50 1021 30.15 850 25.1 9.2 48.6 84 6.7 44
04:55 1021 30.15 850 25.1 9.4 48.8 83 6.7 44.1
05:00 1021 30.15 850 25.1 9.2 48.5 85 6.9 44.4
05:05 1021 30.15 850 25.1 8.9 48.1 85 6.5 43.8
05:10 1021 30.15 850 25.1 9.4 48.8 83 6.6 43.9
05:15 1021 30.15 850 25.1 9.4 49 86 7.1 44.9
05:20 1021 30.15 850 25.1 9.2 48.6 86 7.1 44.8
05:25 1021 30.15 850 25.1 9.1 48.5 87 7.1 44.7
05:30 1021 30.15 850 25.1 9 48.3 86 6.9 44.4
05:35 1021 30.15 850 25.1 9.2 48.5 86 6.9 44.4
05:40 1021 30.15 851 25.13 9 48.3 87 7 44.6
05:45 1021 30.15 851 25.13 8.8 47.8 87 6.8 44.3
05:50 1021 30.15 851 25.13 8.6 47.5 88 6.7 44
05:55 1021 30.15 851 25.13 8.7 47.7 86 6.5 43.8
06:00 1021 30.15 851 25.13 9.1 48.3 85 6.6 43.9
06:05 1021 30.15 851 25.13 9.3 48.7 84 6.8 44.2
06:10 1021 30.15 851 25.13 9.4 48.9 83 6.6 44
06:15 1021 30.15 851 25.13 9.7 49.4 81 6.6 43.9
06:20 1021 30.15 851 25.13 10.1 50.1 80 6.8 44.3
06:25 1021 30.15 851 25.13 10.1 50.2 81 6.9 44.5
06:30 1021 30.15 851 25.13 10.3 50.6 80 7 44.6
06:35 1021 30.15 851 25.13 10.2 50.3 81 7.1 44.8
06:40 1021 30.15 851 25.13 10.1 50.1 81 7 44.6
06:45 1021 30.15 851 25.13 10.1 50.1 80 6.9 44.4
06:50 1022 30.18 851 25.13 10.1 50.1 80 6.8 44.3
06:55 1022 30.18 851 25.13 10.2 50.4 81 7 44.7
07:00 1022 30.18 851 25.13 10.4 50.8 80 7.2 45
07:05 1022 30.18 851 25.13 10.7 51.2 80 7.3 45.2
07:10 1022 30.18 851 25.13 11 51.7 80 7.7 45.9
07:15 1022 30.18 851 25.13 11 51.8 80 7.7 45.9
07:20 1022 30.18 851 25.13 11.3 52.3 78 7.6 45.8
07:25 1022 30.18 851 25.13 11.5 52.8 77 7.7 45.9
07:30 1022 30.18 851 25.13 11.9 53.5 78 8.2 46.7
07:35 1022 30.18 851 25.13 12.2 54 76 8.1 46.6
07:40 1022 30.18 851 25.13 12.5 54.5 74 8.1 46.6
07:45 1022 30.18 851 25.13 13 55.5 71 7.9 46.1
07:50 1022 30.18 851 25.13 13 55.5 72 8.2 46.8
07:55 1022 30.18 851 25.13 13.1 55.6 72 8.3 46.9
08:00 1022 30.18 851 25.13 13 55.3 71 7.9 46.2
08:05 1022 30.18 851 25.13 13.2 55.7 70 8 46.4
08:10 1022 30.18 851 25.13 13.6 56.5 69 8 46.4
08:15 1022 30.18 851 25.13 14.4 57.8 68 8.6 47.5
08:20 1022 30.18 851 25.13 15.2 59.3 61 7.8 46.1
08:25 1022 30.18 851 25.13 15.5 59.9 63 8.5 47.3
08:30 1022 30.18 851 25.13 15.9 60.6 59 8 46.4
08:35 1022 30.18 851 25.13 15.8 60.4 61 8.3 47
08:40 1022 30.18 851 25.13 16.1 61.1 58 8 46.4
08:45 1022 30.18 851 25.13 16.6 61.8 58 8.4 47.1
08:50 1022 30.18 851 25.13 16.7 62 58 8.4 47.1
08:55 1022 30.18 851 25.13 16.8 62.3 57 8.4 47.1
09:00 1022 30.18 851 25.13 16.8 62.2 59 8.7 47.7
09:05 1022 30.18 851 25.13 17.5 63.5 56 8.6 47.6
09:10 1022 30.18 851 25.13 17.5 63.5 54 8.2 46.7
09:15 1022 30.18 851 25.13 18 64.4 53 8.3 47
09:20 1022 30.18 851 25.13 18.1 64.6 54 8.8 47.8
09:25 1022 30.18 851 25.13 17.6 63.7 55 8.6 47.4
09:30 1022 30.18 851 25.13 17.5 63.6 55 8.6 47.5
09:35 1022 30.18 851 25.13 17.9 64.2 55 8.8 47.8
09:40 1022 30.18 851 25.13 17.5 63.5 57 9 48.2
09:45 1022 30.18 851 25.13 17.5 63.6 55 8.5 47.4
09:50 1022 30.18 851 25.13 18.3 64.9 54 9 48.1
09:55 1021 30.15 851 25.13 18.2 64.7 54 8.7 47.7
10:00 1021 30.15 851 25.13 18.8 65.8 52 8.9 48
10:05 1021 30.15 851 25.13 18.8 65.8 53 9.1 48.3
10:10 1021 30.15 851 25.13 18.5 65.2 57 10 50
10:15 1021 30.15 851 25.13 18.4 65.2 55 9.3 48.7
10:20 1021 30.15 851 25.13 19.6 67.3 51 9.4 48.9
10:25 1021 30.15 851 25.13 19.4 66.9 53 9.6 49.4
10:30 1021 30.15 850 25.1 19.6 67.2 50 9.1 48.3
10:35 1021 30.15 851 25.13 20 67.9 49 9 48.1
10:40 1021 30.15 851 25.13 20.4 68.8 48 9.3 48.7
10:45 1021 30.15 850 25.1 20.4 68.8 50 9.7 49.5
10:50 1021 30.15 850 25.1 20.2 68.3 45 7.9 46.2
10:55 1021 30.15 850 25.1 20.3 68.5 43 7.5 45.6
11:00 1021 30.15 850 25.1 19.8 67.6 44 7.4 45.4
11:05 1021 30.15 850 25.1 20.4 68.8 45 8.2 46.8
11:10 1021 30.15 850 25.1 20.6 69 45 8.4 47.2
11:15 1021 30.15 850 25.1 20.3 68.5 43 7.3 45.2
11:20 1021 30.15 850 25.1 20.6 69.1 44 8.1 46.6
11:25 1021 30.15 850 25.1 20.5 68.8 45 8.2 46.8
11:30 1021 30.15 850 25.1 20.3 68.5 44 7.7 45.9
11:35 1021 30.15 850 25.1 19.3 66.8 47 7.8 46.1
11:40 1021 30.15 850 25.1 19.8 67.6 43 6.9 44.4
11:45 1021 30.15 850 25.1 20.8 69.4 42 7.7 45.9
11:50 1021 30.15 850 25.1 20.9 69.6 42 7.7 45.9
11:55 1021 30.15 850 25.1 21.2 70.2 46 9.2 48.6
12:00 1021 30.15 850 25.1 20.4 68.8 46 8.6 47.5
12:05 1021 30.15 850 25.1 19.6 67.2 45 7.3 45.2
12:10 1021 30.15 850 25.1 20.2 68.3 39 6 42.8
12:15 1021 30.15 850 25.1 20.9 69.5 40 6.7 44.1
12:20 1021 30.15 850 25.1 21.7 71.1 36 6.2 43.2
12:25 1021 30.15 850 25.1 22.3 72.1 38 7.6 45.6
12:30 1021 30.15 850 25.1 21.6 70.9 36 6.1 43
12:35 1020 30.12 850 25.1 21.4 70.4 35 5.6 42.1
12:40 1020 30.12 850 25.1 21.5 70.8 37 6.3 43.3
12:45 1020 30.12 850 25.1 22.6 72.7 35 6.6 43.9
12:50 1020 30.12 850 25.1 22.5 72.5 36 7 44.6
12:55 1020 30.12 850 25.1 22.4 72.4 38 7.6 45.7
13:00 1020 30.12 850 25.1 22.5 72.5 36 7 44.7
13:05 1020 30.12 850 25.1 22.2 72 36 6.7 44.1
13:10 1020 30.12 850 25.1 22.7 72.8 37 7.3 45.1
13:15 1020 30.12 849 25.07 23 73.5 37 7.6 45.7
13:20 1020 30.12 849 25.07 23.2 73.7 35 7.2 44.9
13:25 1020 30.12 849 25.07 23.3 73.9 35 7.3 45.1
13:30 1020 30.12 849 25.07 23 73.4 35 7 44.6
13:35 1020 30.12 849 25.07 23.6 74.4 33 6.6 43.9
13:40 1020 30.12 849 25.07 23.8 74.8 34 7.1 44.8
13:45 1020 30.12 849 25.07 23.1 73.6 36 7.4 45.3
13:50 1020 30.12 849 25.07 23 73.3 35 6.8 44.3
13:55 1020 30.12 849 25.07 22.4 72.4 37 7.4 45.3
14:00 1020 30.12 849 25.07 22.3 72.1 35 6.3 43.3
14:05 1020 30.12 849 25.07 22.8 73 36 7 44.6
14:10 1020 30.12 849 25.07 22.1 71.8 38 7.1 44.9
14:15 1020 30.12 849 25.07 22 71.7 37 7 44.6
14:20 1020 30.12 849 25.07 22.6 72.7 35 6.6 43.9
14:25 1020 30.12 849 25.07 23.4 74.1 34 6.6 44
14:30 1019 30.09 849 25.07 23.6 74.4 34 7.1 44.8
14:35 1019 30.09 849 25.07 22.6 72.7 34 6.3 43.4
14:40 1019 30.09 849 25.07 23.7 74.6 32 6.1 43
14:45 1019 30.09 849 25.07 24.3 75.7 32 6.6 44
14:50 1019 30.09 849 25.07 23.7 74.7 33 6.5 43.8
14:55 1019 30.09 848 25.04 23.6 74.4 32 6.1 42.9
15:00 1019 30.09 848 25.04 23 73.4 33 6 42.7
15:05 1019 30.09 848 25.04 22.6 72.7 33 5.8 42.5
15:10 1019 30.09 848 25.04 23.4 74 31 5.6 42.1
15:15 1019 30.09 848 25.04 23.8 74.8 29 5 41
15:20 1019 30.09 848 25.04 24.2 75.6 31 6.2 43.1
15:25 1019 30.09 848 25.04 24.6 76.2 28 5.1 41.3
15:30 1019 30.09 848 25.04 24.2 75.6 30 5.9 42.7
15:35 1019 30.09 848 25.04 24.2 75.6 29 5.2 41.3
15:40 1019 30.09 848 25.04 24.8 76.7 29 5.6 42
15:45 1019 30.09 848 25.04 24.5 76.1 30 6.1 43
15:50 1019 30.09 848 25.04 24 75.2 30 5.8 42.4
15:55 1019 30.09 848 25.04 24.1 75.4 29 5.4 41.7
16:00 1019 30.09 848 25.04 25.1 77.2 29 6 42.8
16:05 1019 30.09 848 25.04 24.9 76.9 28 5.4 41.8
16:10 1019 30.09 848 25.04 25.4 77.7 28 5.6 42.1
16:15 1019 30.09 848 25.04 24.7 76.5 29 5.6 42.1
16:20 1019 30.09 848 25.04 24.1 75.4 30 5.7 42.2
16:25 1019 30.09 848 25.04 24.1 75.3 30 5.9 42.6
16:30 1019 30.09 848 25.04 24.2 75.6 29 5.5 41.9
16:35 1019 30.09 848 25.04 24.5 76.1 29 5.6 42.1
16:40 1019 30.09 848 25.04 24.7 76.4 29 5.8 42.4
16:45 1019 30.09 848 25.04 24.9 76.9 29 6.1 43
16:50 1018 30.06 848 25.04 25 77 29 6.2 43.1
16:55 1018 30.06 848 25.04 24.5 76.1 29 5.5 41.8
17:00 1018 30.06 848 25.04 25.5 77.9 28 5.9 42.6
17:05 1018 30.06 848 25.04 25.5 77.9 27 5.5 41.8
17:10 1018 30.06 848 25.04 24.8 76.6 29 6 42.8
17:15 1018 30.06 848 25.04 24.7 76.5 28 5.2 41.3
17:20 1018 30.06 848 25.04 24.3 75.8 30 5.9 42.6
17:25 1018 30.06 847 25.01 24.2 75.5 29 5.2 41.4
17:30 1018 30.06 847 25.01 24.8 76.6 29 5.9 42.7
17:35 1018 30.06 847 25.01 24.8 76.6 29 5.8 42.4
17:40 1018 30.06 847 25.01 24.8 76.6 30 6.3 43.3
17:45 1018 30.06 847 25.01 24.6 76.2 30 5.9 42.6
17:50 1018 30.06 847 25.01 24.9 76.7 28 5.3 41.5
17:55 1018 30.06 847 25.01 24.9 76.8 29 5.8 42.4
18:00 1018 30.06 847 25.01 24.1 75.3 30 5.7 42.2
18:05 1018 30.06 847 25.01 23.9 75 30 5.6 42.2
18:10 1018 30.06 847 25.01 24.2 75.6 29 5.2 41.3
18:15 1018 30.06 847 25.01 23.6 74.5 31 5.6 42.1
18:20 1018 30.06 847 25.01 23.4 74.2 29 4.5 40.2
18:25 1018 30.06 847 25.01 23.2 73.8 28 4.2 39.5
18:30 1018 30.06 847 25.01 23.5 74.2 26 3.3 38
18:35 1018 30.06 847 25.01 24.1 75.4 26 3.7 38.7
18:40 1018 30.06 847 25.01 24 75.2 25 3.1 37.5
18:45 1018 30.06 847 25.01 23.8 74.8 25 2.9 37.2
18:50 1018 30.06 847 25.01 23.6 74.4 25 2.5 36.4
18:55 1018 30.06 847 25.01 23.9 75 23 1.9 35.5
19:00 1018 30.06 847 25.01 24.3 75.7 24 2.4 36.3
19:05 1018 30.06 847 25.01 24.2 75.5 24 2.4 36.3
19:10 1018 30.06 847 25.01 23.9 75 24 2.5 36.6
19:15 1018 30.06 847 25.01 23.7 74.6 24 2.3 36.2
19:20 1018 30.06 847 25.01 23.5 74.3 25 2.3 36.2
19:25 1018 30.06 847 25.01 23.7 74.7 23 1.5 34.7
19:30 1018 30.06 847 25.01 23.7 74.7 24 2.3 36.2
19:35 1018 30.06 847 25.01 23.8 74.8 24 2.1 35.8
19:40 1018 30.06 847 25.01 23.8 74.9 24 2.2 35.9
19:45 1018 30.06 847 25.01 23.8 74.9 25 2.6 36.6
19:50 1018 30.06 847 25.01 23.6 74.5 28 4.4 40
19:55 1018 30.06 847 25.01 23.4 74.2 26 3.1 37.5
20:00 1018 30.06 847 25.01 23.4 74.2 25 2.4 36.3
20:05 1018 30.06 847 25.01 23.5 74.3 28 4.4 39.8
20:10 1018 30.06 847 25.01 23.4 74.1 31 5.6 42.1
20:15 1018 30.06 847 25.01 23 73.4 30 4.9 40.8
20:20 1018 30.06 847 25.01 22.6 72.6 32 5.4 41.8
20:25 1018 30.06 847 25.01 22.3 72.1 34 6 42.8
20:30 1018 30.06 847 25.01 22.1 71.8 36 6.4 43.6
20:35 1018 30.06 847 25.01 21.9 71.4 37 6.6 43.8
20:40 1018 30.06 847 25.01 21.8 71.3 36 6.3 43.4
20:45 1018 30.06 847 25.01 21.8 71.2 38 6.9 44.5
20:50 1018 30.06 847 25.01 21.6 70.8 39 7.2 45
20:55 1018 30.06 847 25.01 21.3 70.3 40 7.4 45.4
21:00 1018 30.06 847 25.01 21 69.8 42 7.7 45.9
21:05 1018 30.06 847 25.01 20.8 69.5 43 8 46.4
21:10 1018 30.06 847 25.01 20.7 69.2 44 8.2 46.8
21:15 1018 30.06 847 25.01 20.5 68.9 44 7.9 46.3
21:20 1018 30.06 847 25.01 20.3 68.5 45 8 46.4
21:25 1018 30.06 847 25.01 20 68 46 8.1 46.5
21:30 1018 30.06 847 25.01 19.7 67.4 45 7.5 45.5
21:35 1018 30.06 847 25.01 19.6 67.2 43 6.7 44.1
21:40 1018 30.06 847 25.01 19.6 67.2 43 6.9 44.5
21:45 1018 30.06 847 25.01 19.4 67 44 7 44.6
21:50 1018 30.06 847 25.01 19.3 66.8 43 6.7 44
21:55 1018 30.06 847 25.01 19.3 66.8 42 6.4 43.4
22:00 1018 30.06 847 25.01 19.5 67 41 6.2 43.1
22:05 1018 30.06 847 25.01 19.6 67.2 41 6 42.8
22:10 1018 30.06 847 25.01 19.5 67.2 41 5.9 42.7
22:15 1018 30.06 847 25.01 19.4 66.9 40 5.7 42.2
22:20 1018 30.06 847 25.01 19.5 67.1 38 5 40.9
22:25 1018 30.06 847 25.01 19.5 67.2 37 4.5 40
22:30 1018 30.06 847 25.01 19.5 67.2 37 4.5 40
22:35 1018 30.06 847 25.01 19.5 67.1 36 4.3 39.7
22:40 1018 30.06 847 25.01 19.5 67.1 35 4 39.2
22:45 1018 30.06 847 25.01 19.2 66.6 38 4.7 40.4
22:50 1018 30.06 847 25.01 18.8 65.9 39 4.6 40.3
22:55 1018 30.06 847 25.01 18.7 65.7 39 4.5 40.1
23:00 1018 30.06 847 25.01 18.7 65.7 39 4.5 40.1
23:05 1018 30.06 847 25.01 18.8 65.8 39 4.6 40.2
23:10 1018 30.06 847 25.01 18.7 65.7 38 4.4 39.9
23:15 1018 30.06 847 25.01 18.5 65.2 40 4.8 40.6
23:20 1018 30.06 847 25.01 18.1 64.5 41 4.9 40.7
23:25 1018 30.06 847 25.01 17.8 64.1 42 5 41
23:30 1018 30.06 847 25.01 17.5 63.6 43 4.8 40.7
23:35 1017 30.03 847 25.01 17.4 63.2 42 4.6 40.3
23:40 1017 30.03 847 25.01 17.4 63.3 42 4.3 39.8
23:45 1017 30.03 847 25.01 17.5 63.5 42 4.5 40.2
23:50 1017 30.03 847 25.01 17.4 63.3 43 4.6 40.4
23:55 1017 30.03 847 25.01 17.1 62.9 44 4.9 40.9
24:00 1017 30.03 847 25.01 16.9 62.4 46 5.2 41.4